Time;durP1;ratioP1;P1;durP2;ratioP2;P2;SDS_P1;SDS_P2;PMS_P1;PMS_P2;Temp;Humidity;BMP_temperature;BMP_pressure;BME280_temperature;BME280_humidity;BME280_pressure;Samples;Min_cycle;Max_cycle;Signal;HPM_P1;HPM_P2
2021/12/14 00:00:34;;;;;;;17.55;7.78;;;;;;;-1.28;98.05;99660.94;4452064;32;20147;-72
2021/12/14 00:03:02;;;;;;;12.13;5.55;;;;;;;-1.26;96.90;99669.50;4452050;32;20123;-72
2021/12/14 00:05:31;;;;;;;16.50;6.93;;;;;;;-1.33;96.93;99675.66;4451949;32;20136;-72
2021/12/14 00:08:01;;;;;;;12.77;6.30;;;;;;;-1.42;96.96;99675.91;4452029;32;20113;-72
2021/12/14 00:13:45;;;;;;;19.45;6.93;;;;;;;-1.38;95.79;99674.91;4452050;32;20120;-72
2021/12/14 00:15:57;;;;;;;15.23;6.28;;;;;;;-1.49;96.79;99666.66;4452145;32;20435;-72
2021/12/14 00:18:24;;;;;;;16.50;5.87;;;;;;;-1.49;96.72;99670.06;4467033;31;20106;-72
2021/12/14 00:20:55;;;;;;;14.52;7.03;;;;;;;-1.31;96.31;99673.06;4501506;31;20111;-72
2021/12/14 00:26:13;;;;;;;13.18;5.85;;;;;;;-1.64;96.72;99673.03;4485638;32;20107;-72
2021/12/14 00:28:41;;;;;;;15.55;6.62;;;;;;;-1.65;96.90;99672.19;4491098;31;20088;-72
2021/12/14 00:31:13;;;;;;;14.87;6.22;;;;;;;-1.70;97.76;99665.47;4501345;31;20138;-72
2021/12/14 00:33:43;;;;;;;16.02;7.28;;;;;;;-1.76;97.45;99669.03;4501397;31;20154;-72
2021/12/14 00:36:12;;;;;;;12.98;5.68;;;;;;;-1.83;97.53;99668.34;4501511;31;20105;-72
2021/12/14 00:38:42;;;;;;;16.60;7.47;;;;;;;-1.73;97.72;99674.09;4501232;31;20119;-72
2021/12/14 00:41:17;;;;;;;16.65;6.68;;;;;;;-1.86;98.19;99672.69;4500474;31;20100;-72
2021/12/14 00:43:45;;;;;;;15.25;7.47;;;;;;;-1.87;98.73;99674.41;4501413;31;20108;-72
2021/12/14 00:46:14;;;;;;;15.80;7.47;;;;;;;-1.68;97.92;99682.53;4501186;31;20148;-72
2021/12/14 00:48:42;;;;;;;15.25;7.82;;;;;;;-1.57;97.21;99686.56;4501169;31;20454;-72
2021/12/14 00:51:11;;;;;;;15.30;6.80;;;;;;;-1.69;96.64;99685.16;4500979;31;20544;-72
2021/12/14 00:53:39;;;;;;;14.10;6.85;;;;;;;-1.79;97.30;99689.66;4500800;31;20469;-72
2021/12/14 00:56:09;;;;;;;17.95;6.45;;;;;;;-1.95;98.39;99696.87;4500935;31;20088;-72
2021/12/14 00:58:37;;;;;;;16.30;7.32;;;;;;;-2.10;99.04;99690.38;4501329;31;20072;-72
2021/12/14 01:01:11;;;;;;;16.60;8.15;;;;;;;-2.17;99.61;99693.94;4501280;31;20114;-72
2021/12/14 01:03:42;;;;;;;16.33;7.43;;;;;;;-2.13;99.48;99690.44;4501183;31;20080;-72
2021/12/14 01:06:11;;;;;;;17.33;6.90;;;;;;;-2.04;98.60;99685.09;4499893;31;20493;-72
2021/12/14 01:08:40;;;;;;;15.40;7.00;;;;;;;-2.08;98.54;99680.91;4501183;31;20092;-72
2021/12/14 01:11:17;;;;;;;15.93;6.95;;;;;;;-2.14;98.79;99683.59;4501135;31;20080;-72
2021/12/14 01:13:58;;;;;;;16.25;6.90;;;;;;;-2.13;98.85;99680.16;4501418;31;20084;-72
2021/12/14 01:16:37;;;;;;;14.20;6.95;;;;;;;-2.09;98.55;99692.06;4501122;31;20403;-72
2021/12/14 01:19:15;;;;;;;11.10;6.40;;;;;;;-1.99;97.88;99692.69;4500966;31;20106;-72
2021/12/14 01:27:16;;;;;;;14.45;6.65;;;;;;;-1.54;95.36;99697.59;4451841;32;20173;-72
2021/12/14 01:29:44;;;;;;;12.30;6.30;;;;;;;-1.72;94.94;99706.59;4463442;32;20157;-72
2021/12/14 01:32:12;;;;;;;16.25;6.85;;;;;;;-1.90;95.82;99707.03;4467171;32;20225;-72
2021/12/14 01:34:40;;;;;;;18.23;6.45;;;;;;;-1.91;96.51;99702.78;4467220;32;20096;-72
2021/12/14 01:37:17;;;;;;;13.15;6.85;;;;;;;-1.87;96.29;99694.13;4466927;32;20096;-71
2021/12/14 01:40:01;;;;;;;13.43;6.82;;;;;;;-1.99;96.89;99705.53;4467179;32;20100;-72
2021/12/14 01:42:34;;;;;;;14.55;5.93;;;;;;;-2.01;96.96;99694.47;4467488;32;20109;-72
2021/12/14 01:45:12;;;;;;;15.27;7.03;;;;;;;-2.07;97.48;99692.03;4467200;32;20561;-71
2021/12/14 01:47:47;;;;;;;13.25;5.75;;;;;;;-2.08;97.63;99688.59;4466843;32;20137;-71
2021/12/14 01:50:28;;;;;;;12.60;6.25;;;;;;;-1.83;96.71;99695.75;4466869;32;20510;-72
2021/12/14 01:52:57;;;;;;;16.60;6.20;;;;;;;-1.70;95.44;99693.72;4466983;32;20096;-72
2021/12/14 01:55:29;;;;;;;12.07;5.12;;;;;;;-1.74;95.54;99687.81;4466922;32;20127;-72
2021/12/14 01:57:59;;;;;;;15.13;6.37;;;;;;;-1.71;95.29;99690.31;4454066;32;20133;-72
2021/12/14 02:00:33;;;;;;;15.70;7.05;;;;;;;-1.66;95.32;99696.19;4466832;32;20100;-71
2021/12/14 02:03:02;;;;;;;;;;;;;;;-1.42;93.80;99678.47;4466939;32;20128;-71
2021/12/14 02:05:32;;;;;;;11.75;5.20;;;;;;;-1.67;93.01;99691.91;4498582;31;20062;-72
2021/12/14 02:08:02;;;;;;;13.23;5.15;;;;;;;-1.83;93.73;99686.31;4500090;31;20080;-72
2021/12/14 02:10:34;;;;;;;9.60;4.75;;;;;;;-1.85;94.75;99684.66;4500558;31;20076;-72
2021/12/14 02:13:02;;;;;;;10.55;5.37;;;;;;;-1.86;94.80;99682.97;4500860;31;20165;-71
2021/12/14 02:15:42;;;;;;;13.57;5.78;;;;;;;-1.78;94.36;99681.06;4500714;31;20100;-71
2021/12/14 02:18:14;;;;;;;12.93;5.60;;;;;;;-1.78;94.20;99683.63;4500505;31;20446;-71
2021/12/14 02:20:54;;;;;;;13.73;5.78;;;;;;;-1.92;94.14;99677.97;4500465;31;20071;-71
2021/12/14 02:23:22;;;;;;;11.90;5.40;;;;;;;-2.20;95.02;99684.56;4487749;31;20130;-71
2021/12/14 02:25:51;;;;;;;16.52;5.72;;;;;;;-2.39;95.57;99688.41;4484278;31;20096;-71
2021/12/14 02:28:21;;;;;;;11.85;5.90;;;;;;;-2.41;96.52;99678.19;4487556;31;20167;-71
2021/12/14 02:30:51;;;;;;;11.80;5.15;;;;;;;-2.29;96.98;99689.91;4500100;31;20465;-71
2021/12/14 02:33:23;;;;;;;12.73;5.65;;;;;;;-2.09;96.49;99688.63;4500393;31;20091;-71
2021/12/14 02:35:52;;;;;;;12.75;5.57;;;;;;;-2.01;97.23;99695.28;4500182;31;20610;-71
2021/12/14 02:38:20;;;;;;;15.68;6.62;;;;;;;-2.01;98.31;99689.31;4500450;31;20105;-71
2021/12/14 02:41:01;;;;;;;12.00;5.85;;;;;;;-2.11;98.63;99687.84;4500012;31;20424;-71
2021/12/14 02:43:41;;;;;;;11.88;6.07;;;;;;;-2.14;100.00;99691.31;4500619;31;20110;-71
2021/12/14 02:46:21;;;;;;;13.05;6.53;;;;;;;-1.99;100.00;99698.66;4500214;31;20096;-72
2021/12/14 02:48:58;;;;;;;17.60;7.82;;;;;;;-1.87;100.00;99686.44;4500263;31;20111;-72
2021/12/14 02:51:32;;;;;;;19.25;8.05;;;;;;;-1.79;100.00;99676.81;4499937;31;20096;-72
2021/12/14 02:54:29;;;;;;;16.33;7.97;;;;;;;-1.70;100.00;99678.31;4498848;31;20453;-72
2021/12/14 02:57:04;;;;;;;20.55;6.55;;;;;;;-1.68;100.00;99677.41;4434799;32;20661;-72
2021/12/14 02:59:35;;;;;;;22.08;7.50;;;;;;;-1.62;100.00;99686.66;4434817;32;20427;-72
2021/12/14 03:02:08;;;;;;;17.80;8.60;;;;;;;-1.52;100.00;99685.56;4435182;32;20094;-72
2021/12/14 03:04:45;;;;;;;16.65;7.03;;;;;;;-1.54;100.00;99676.22;4435112;32;20101;-72
2021/12/14 03:07:13;;;;;;;21.85;8.98;;;;;;;-1.56;100.00;99688.25;4435030;32;20589;-72
2021/12/14 03:10:06;;;;;;;16.45;8.23;;;;;;;-1.55;100.00;99682.22;4434615;32;20819;-71
2021/12/14 03:12:36;;;;;;;15.18;6.85;;;;;;;-1.72;100.00;99686.06;4434762;32;20090;-72
2021/12/14 03:15:13;;;;;;;17.30;8.15;;;;;;;-1.56;100.00;99673.69;4434721;32;20231;-72
2021/12/14 03:17:43;;;;;;;16.12;7.72;;;;;;;-1.70;100.00;99684.28;4435674;32;20683;-72
2021/12/14 03:20:21;;;;;;;14.95;6.93;;;;;;;-1.62;100.00;99682.38;4436744;32;20121;-71
2021/12/14 03:22:55;;;;;;;17.05;7.85;;;;;;;-1.51;100.00;99681.28;4428129;32;20094;-71
2021/12/14 03:25:23;;;;;;;16.70;7.35;;;;;;;-1.49;100.00;99682.91;4421172;32;20717;-71
2021/12/14 03:27:54;;;;;;;19.12;7.43;;;;;;;-1.48;100.00;99674.31;4421905;32;20121;-72
2021/12/14 03:30:31;;;;;;;18.27;7.62;;;;;;;-1.57;100.00;99676.28;4436520;32;20116;-71
2021/12/14 03:33:18;;;;;;;15.85;6.90;;;;;;;-1.42;100.00;99673.34;4442469;31;20146;-72
2021/12/14 03:35:48;;;;;;;15.95;6.72;;;;;;;-1.47;100.00;99681.16;4501854;31;20115;-71
2021/12/14 03:38:21;;;;;;;13.88;6.20;;;;;;;-1.49;100.00;99679.50;4486147;32;20148;-71
2021/12/14 03:41:02;;;;;;;15.85;7.05;;;;;;;-1.41;100.00;99674.16;4485798;31;20076;-71
2021/12/14 03:43:32;;;;;;;18.60;6.87;;;;;;;-1.47;100.00;99672.59;4486401;31;20076;-71
2021/12/14 03:46:01;;;;;;;18.02;7.80;;;;;;;-1.34;100.00;99668.81;4485752;31;20099;-72
2021/12/14 03:48:29;;;;;;;20.30;7.90;;;;;;;-1.29;100.00;99667.00;4486278;31;20100;-72
2021/12/14 03:50:58;;;;;;;13.57;5.43;;;;;;;-1.31;100.00;99666.19;4485680;31;20374;-72
2021/12/14 03:53:26;;;;;;;17.27;7.25;;;;;;;-1.19;100.00;99659.03;4484939;32;20092;-72
2021/12/14 03:55:59;;;;;;;13.23;6.97;;;;;;;-1.23;100.00;99660.00;4485805;31;20174;-72
2021/12/14 03:58:35;;;;;;;16.35;7.05;;;;;;;-1.28;100.00;99660.94;4486170;31;20101;-71
2021/12/14 04:01:16;;;;;;;15.95;7.12;;;;;;;-1.28;100.00;99663.53;4485784;31;20155;-72
2021/12/14 04:03:46;;;;;;;17.15;7.82;;;;;;;-1.25;100.00;99662.59;4486180;31;20092;-71
2021/12/14 04:06:14;;;;;;;11.63;5.75;;;;;;;-1.29;100.00;99664.44;4485971;31;20093;-72
2021/12/14 04:08:42;;;;;;;11.52;6.00;;;;;;;-1.27;100.00;99664.38;4485953;31;20438;-71
2021/12/14 04:11:12;;;;;;;14.73;6.28;;;;;;;-1.33;100.00;99670.53;4485572;31;20100;-72
2021/12/14 04:13:42;;;;;;;17.02;6.57;;;;;;;-1.33;100.00;99664.53;4485978;31;20080;-72
2021/12/14 04:16:13;;;;;;;15.25;7.12;;;;;;;-1.42;100.00;99663.06;4485942;31;20126;-72
2021/12/14 04:18:40;;;;;;;14.07;6.40;;;;;;;-1.41;100.00;99669.88;4485970;31;20096;-72
2021/12/14 04:21:08;;;;;;;13.20;6.53;;;;;;;-1.59;100.00;99662.62;4485314;31;20088;-72
2021/12/14 04:23:43;;;;;;;14.90;7.28;;;;;;;-1.73;100.00;99660.41;4484315;32;20092;-72
2021/12/14 04:26:14;;;;;;;14.98;7.15;;;;;;;-1.77;100.00;99659.66;4485609;31;20371;-72
2021/12/14 04:28:47;;;;;;;21.20;7.90;;;;;;;-1.77;100.00;99666.50;4484887;31;20160;-72
2021/12/14 04:31:16;;;;;;;17.45;8.00;;;;;;;-1.65;100.00;99661.03;4485686;31;20404;-72
2021/12/14 04:33:46;;;;;;;18.12;8.32;;;;;;;-1.69;100.00;99669.72;4485695;31;20116;-72
2021/12/14 04:36:19;;;;;;;33.88;13.62;;;;;;;-1.55;100.00;99674.53;4485521;32;20464;-72
2021/12/14 04:38:54;;;;;;;44.38;18.65;;;;;;;-1.41;100.00;99669.03;4485892;31;20516;-71
2021/12/14 04:52:33;;;;;;;18.70;7.78;;;;;;;-1.48;100.00;99673.50;4485547;31;20084;-71
2021/12/14 04:55:09;;;;;;;17.50;7.70;;;;;;;-1.54;100.00;99665.94;4485298;32;20103;-71
2021/12/14 04:57:43;;;;;;;21.27;9.25;;;;;;;-1.36;100.00;99667.16;4485592;31;20118;-71
2021/12/14 05:00:24;;;;;;;20.58;9.38;;;;;;;-1.43;100.00;99663.94;4485397;31;20097;-72
2021/12/14 05:02:57;;;;;;;19.70;9.27;;;;;;;-1.55;100.00;99666.81;4485578;31;20092;-72
2021/12/14 05:05:31;;;;;;;19.45;9.23;;;;;;;-1.57;100.00;99668.59;4485538;32;20449;-72
2021/12/14 05:10:46;;;;;;;25.60;11.02;;;;;;;-1.96;100.00;99677.22;4485260;31;20570;-72
2021/12/14 05:13:17;;;;;;;26.20;11.70;;;;;;;-1.94;100.00;99670.31;4485465;31;20093;-73
2021/12/14 05:15:45;;;;;;;30.17;12.93;;;;;;;-2.21;100.00;99669.22;4485603;31;20076;-72
2021/12/14 05:18:14;;;;;;;36.72;15.40;;;;;;;-2.37;100.00;99677.25;4485261;31;20123;-73
2021/12/14 05:20:45;;;;;;;29.80;12.88;;;;;;;-2.48;100.00;99674.09;4485431;31;20468;-72
2021/12/14 05:23:33;;;;;;;23.52;10.52;;;;;;;-2.35;100.00;99680.66;4496926;31;20484;-72
2021/12/14 05:26:03;;;;;;;23.38;10.15;;;;;;;-2.15;100.00;99684.47;4501046;31;20167;-72
2021/12/14 05:28:32;;;;;;;26.77;11.50;;;;;;;-2.26;100.00;99689.84;4496399;31;20160;-72
2021/12/14 05:31:03;;;;;;;27.77;10.57;;;;;;;-2.28;100.00;99695.91;4485303;31;20092;-73
2021/12/14 05:33:37;;;;;;;26.77;11.05;;;;;;;-2.29;100.00;99692.47;4485308;31;20088;-72
2021/12/14 05:36:14;;;;;;;18.52;9.73;;;;;;;-2.29;100.00;99689.91;4485450;31;20434;-72
2021/12/14 05:44:22;;;;;;;24.17;10.75;;;;;;;-2.16;100.00;99693.91;4485398;32;20080;-72
2021/12/14 05:46:52;;;;;;;22.97;10.50;;;;;;;-2.23;100.00;99694.09;4485093;31;20092;-72
2021/12/14 05:49:24;;;;;;;24.42;11.60;;;;;;;-2.33;100.00;99699.41;4485167;31;20121;-72
2021/12/14 05:51:52;;;;;;;19.80;10.43;;;;;;;-2.45;100.00;99703.94;4484897;31;20104;-71
2021/12/14 05:54:22;;;;;;;25.08;11.52;;;;;;;-2.41;100.00;99703.84;4485043;31;20092;-72
2021/12/14 05:56:51;;;;;;;23.10;9.90;;;;;;;-2.33;100.00;99691.72;4490900;31;20096;-71
2021/12/14 05:59:22;;;;;;;24.30;10.70;;;;;;;-2.07;100.00;99695.44;4500107;31;20118;-71
2021/12/14 06:01:50;;;;;;;20.83;9.65;;;;;;;-1.97;100.00;99696.91;4500843;31;20100;-71
2021/12/14 06:04:18;;;;;;;21.17;9.98;;;;;;;-1.91;100.00;99693.34;4500564;31;20530;-71
2021/12/14 06:06:49;;;;;;;25.50;10.40;;;;;;;-1.88;100.00;99698.41;4500595;31;20157;-71
2021/12/14 06:09:25;;;;;;;20.08;8.98;;;;;;;-2.06;100.00;99696.25;4500513;31;20087;-71
2021/12/14 06:12:00;;;;;;;21.85;10.15;;;;;;;-1.93;100.00;99707.12;4500683;31;20138;-71
2021/12/14 06:14:29;;;;;;;24.58;10.57;;;;;;;-1.96;100.00;99698.59;4500713;31;20110;-71
2021/12/14 06:17:00;;;;;;;20.75;9.75;;;;;;;-1.98;100.00;99705.50;4483947;31;20156;-72
2021/12/14 06:19:48;;;;;;;24.20;10.85;;;;;;;-2.03;100.00;99712.47;4490096;31;20115;-72
2021/12/14 06:22:19;;;;;;;24.50;10.43;;;;;;;-1.91;100.00;99710.47;4499738;31;20152;-71
2021/12/14 06:24:53;;;;;;;24.23;10.63;;;;;;;-1.82;100.00;99712.84;4484714;31;20104;-72
2021/12/14 06:27:21;;;;;;;;;;;;;;;-1.72;100.00;99716.03;4497697;31;20092;-72
2021/12/14 06:29:54;;;;;;;36.47;15.20;;;;;;;-1.85;100.00;99726.56;4496931;31;19994;-71
2021/12/14 06:32:30;;;;;;;31.67;14.35;;;;;;;-2.01;100.00;99726.09;4499624;31;20088;-71
2021/12/14 06:35:00;;;;;;;33.28;13.90;;;;;;;-2.27;100.00;99723.25;4499879;31;20114;-72
2021/12/14 06:40:31;;;;;;;30.62;12.02;;;;;;;-2.38;100.00;99708.91;4499761;31;20108;-72
2021/12/14 06:43:05;;;;;;;24.80;11.68;;;;;;;-2.22;100.00;99717.16;4499983;31;20152;-71
2021/12/14 06:45:36;;;;;;;29.08;11.43;;;;;;;-2.10;100.00;99710.91;4497612;31;20491;-71
2021/12/14 06:48:19;;;;;;;26.95;11.35;;;;;;;-2.16;100.00;99721.31;4491056;31;20079;-72
2021/12/14 06:50:51;;;;;;;22.10;10.75;;;;;;;-2.09;100.00;99725.44;4499220;31;20555;-71
2021/12/14 06:53:23;;;;;;;20.30;10.85;;;;;;;-1.90;100.00;99717.31;4501330;31;20099;-71
2021/12/14 06:55:54;;;;;;;26.35;11.25;;;;;;;-1.92;100.00;99724.19;4494219;31;20168;-71
2021/12/14 06:58:27;;;;;;;24.15;10.82;;;;;;;-1.98;100.00;99733.72;4498393;31;20072;-71
2021/12/14 07:01:26;;;;;;;20.73;10.68;;;;;;;-1.87;100.00;99738.62;4500720;31;20088;-72
2021/12/14 07:04:00;;;;;;;25.17;10.85;;;;;;;-1.91;100.00;99736.16;4501666;31;20091;-72
2021/12/14 07:06:48;;;;;;;23.23;11.12;;;;;;;-1.90;100.00;99736.13;4501154;31;20104;-72
2021/12/14 07:09:21;;;;;;;22.55;10.50;;;;;;;-1.84;100.00;99732.59;4501286;31;20088;-72
2021/12/14 07:12:10;;;;;;;22.87;10.98;;;;;;;-1.86;100.00;99739.47;4492628;31;20096;-73
2021/12/14 07:14:49;;;;;;;18.80;10.43;;;;;;;-1.62;100.00;99743.19;4499498;31;20511;-72
2021/12/14 07:17:29;;;;;;;25.35;12.13;;;;;;;-1.53;100.00;99744.69;4500006;31;20170;-71
2021/12/14 07:20:11;;;;;;;23.40;10.90;;;;;;;-1.44;100.00;99736.75;4501110;31;20088;-72
2021/12/14 07:22:54;;;;;;;26.30;10.85;;;;;;;-1.14;100.00;99744.59;4493779;31;20481;-71
2021/12/14 07:25:33;;;;;;;21.90;10.40;;;;;;;-1.17;100.00;99742.94;4500983;31;20902;-71
2021/12/14 07:28:12;;;;;;;21.45;10.55;;;;;;;-1.21;100.00;99745.62;4500605;31;20095;-71
2021/12/14 07:30:50;;;;;;;27.55;11.30;;;;;;;-1.07;100.00;99751.28;4500091;31;20381;-71
2021/12/14 07:33:32;;;;;;;24.52;9.88;;;;;;;-1.06;100.00;99742.66;4501214;31;20423;-71
2021/12/14 07:36:04;;;;;;;23.95;12.07;;;;;;;-0.96;100.00;99745.84;4501018;31;20147;-71
2021/12/14 07:38:44;;;;;;;24.12;11.00;;;;;;;-0.87;100.00;99742.19;4501508;31;20142;-72
2021/12/14 07:41:22;;;;;;;27.80;11.88;;;;;;;-0.77;100.00;99741.06;4500921;31;20555;-72
2021/12/14 07:43:59;;;;;;;30.00;13.00;;;;;;;-0.49;100.00;99748.03;4501407;31;20088;-72
2021/12/14 07:46:41;;;;;;;23.45;11.10;;;;;;;-0.28;100.00;99749.97;4499628;31;20793;-72
2021/12/14 07:49:29;;;;;;;26.95;10.88;;;;;;;-0.17;100.00;99748.81;4500871;31;20202;-72
2021/12/14 07:52:10;;;;;;;27.95;12.32;;;;;;;0.03;98.46;99746.50;4500432;31;20112;-72
2021/12/14 07:54:52;;;;;;;25.60;9.45;;;;;;;0.16;96.46;99742.63;4501394;31;20150;-71
2021/12/14 07:57:23;;;;;;;19.50;8.85;;;;;;;0.37;94.66;99745.44;4501294;31;20096;-72
2021/12/14 07:59:54;;;;;;;21.45;9.05;;;;;;;0.48;92.91;99745.94;4501178;31;20215;-72
2021/12/14 08:02:30;;;;;;;22.65;9.15;;;;;;;0.28;93.27;99740.59;4500723;31;20110;-72
2021/12/14 08:05:04;;;;;;;20.52;9.50;;;;;;;0.18;93.20;99745.16;4499207;31;20168;-72
2021/12/14 08:07:34;;;;;;;26.27;9.70;;;;;;;0.33;93.01;99749.00;4500573;31;20469;-72
2021/12/14 08:10:11;;;;;;;21.58;9.60;;;;;;;0.35;91.03;99744.66;4499343;31;20116;-72
2021/12/14 08:12:47;;;;;;;22.15;9.95;;;;;;;0.53;90.63;99746.66;4498624;31;20111;-72
2021/12/14 08:15:41;;;;;;;22.87;10.63;;;;;;;0.77;89.83;99743.31;4500580;31;20156;-73
2021/12/14 08:18:19;;;;;;;19.60;9.18;;;;;;;0.78;89.22;99743.25;4501172;31;20096;-72
2021/12/14 08:20:57;;;;;;;18.58;9.43;;;;;;;0.89;89.48;99742.91;4500834;31;20092;-73
2021/12/14 08:23:36;;;;;;;24.00;10.80;;;;;;;1.03;89.41;99745.00;4497461;31;20117;-73
2021/12/14 08:26:06;;;;;;;21.00;10.57;;;;;;;1.20;88.02;99742.69;4494478;31;20115;-73
2021/12/14 08:28:51;;;;;;;24.90;10.75;;;;;;;1.25;87.06;99739.94;4494436;31;20131;-73
2021/12/14 08:31:21;;;;;;;23.45;10.32;;;;;;;1.18;85.67;99741.91;4488892;31;20219;-73
2021/12/14 08:34:06;;;;;;;30.60;12.63;;;;;;;1.27;86.27;99742.47;4489899;31;20084;-73
2021/12/14 08:36:44;;;;;;;24.63;12.05;;;;;;;1.43;84.99;99743.63;4495461;31;20460;-73
2021/12/14 08:39:42;;;;;;;28.42;12.80;;;;;;;1.42;84.38;99749.66;4500229;31;20157;-73
2021/12/14 08:42:18;;;;;;;26.83;13.40;;;;;;;1.44;85.35;99749.63;4492292;31;20155;-73
2021/12/14 08:44:54;;;;;;;29.05;13.40;;;;;;;1.38;87.00;99756.69;4496656;31;20084;-73
2021/12/14 08:47:31;;;;;;;29.95;14.20;;;;;;;1.53;87.48;99749.28;4500830;31;20172;-73
2021/12/14 08:50:01;;;;;;;29.15;13.00;;;;;;;1.61;86.62;99757.59;4500648;31;20104;-73
2021/12/14 08:52:29;;;;;;;26.73;12.07;;;;;;;1.75;86.49;99757.09;4499748;31;20524;-73
2021/12/14 08:55:01;;;;;;;27.58;12.00;;;;;;;1.83;84.21;99761.97;4499488;31;20516;-74
2021/12/14 08:57:30;;;;;;;28.85;13.43;;;;;;;1.82;83.99;99761.12;4500195;31;20544;-73
2021/12/14 09:00:03;;;;;;;31.87;14.75;;;;;;;1.95;83.60;99756.34;4499449;31;20099;-73
2021/12/14 09:02:32;;;;;;;32.08;13.70;;;;;;;1.98;84.00;99760.56;4497576;31;20513;-73
2021/12/14 09:05:06;;;;;;;27.65;15.52;;;;;;;2.03;83.19;99758.63;4499950;31;20088;-72
2021/12/14 09:07:34;;;;;;;30.33;15.48;;;;;;;2.15;83.45;99758.19;4500853;31;20096;-73
2021/12/14 09:10:07;;;;;;;32.90;15.80;;;;;;;2.23;83.34;99753.53;4499779;31;20091;-75
2021/12/14 09:12:39;;;;;;;37.05;17.55;;;;;;;2.10;81.82;99754.91;4499430;31;20127;-74
2021/12/14 09:15:16;;;;;;;37.13;17.65;;;;;;;2.23;81.68;99755.28;4498988;31;20095;-74
2021/12/14 09:17:44;;;;;;;38.83;18.17;;;;;;;2.31;82.94;99753.25;4499283;31;20151;-74
2021/12/14 09:20:47;;;;;;;30.45;16.58;;;;;;;2.42;82.38;99745.06;4497577;31;20441;-73
2021/12/14 09:23:21;;;;;;;31.65;14.23;;;;;;;2.40;81.58;99744.28;4462052;32;20207;-73
2021/12/14 09:25:49;;;;;;;24.23;13.55;;;;;;;2.35;81.16;99754.81;4464548;32;20473;-73
2021/12/14 09:28:17;;;;;;;26.17;12.85;;;;;;;2.42;82.03;99750.22;4461798;32;20117;-73
2021/12/14 09:30:50;;;;;;;22.67;12.52;;;;;;;2.51;81.79;99749.84;4464321;32;20135;-73
2021/12/14 09:33:18;;;;;;;27.90;15.15;;;;;;;2.49;81.03;99743.91;4452125;32;20159;-74
2021/12/14 09:35:46;;;;;;;28.05;14.23;;;;;;;2.52;81.54;99742.94;4464749;32;20495;-74
2021/12/14 09:38:18;;;;;;;30.15;14.40;;;;;;;2.65;81.18;99742.37;4466313;32;20170;-74
2021/12/14 09:40:51;;;;;;;27.40;15.60;;;;;;;2.73;81.73;99749.00;4465248;32;20191;-74
2021/12/14 09:43:20;;;;;;;30.60;15.93;;;;;;;2.81;80.81;99741.75;4463605;32;20743;-74
2021/12/14 09:45:52;;;;;;;30.20;15.07;;;;;;;2.77;80.51;99740.19;4465124;32;20101;-73
2021/12/14 09:48:23;;;;;;;29.85;14.75;;;;;;;2.73;81.56;99736.88;4457146;32;166493;-73
2021/12/14 09:50:51;;;;;;;32.80;14.77;;;;;;;2.69;82.63;99740.50;4463877;32;20128;-73
2021/12/14 09:53:22;;;;;;;29.65;15.65;;;;;;;2.67;81.65;99732.81;4464290;32;20172;-74
2021/12/14 09:55:53;;;;;;;32.00;16.17;;;;;;;2.74;82.11;99729.97;4464903;32;20112;-74
2021/12/14 09:58:26;;;;;;;35.25;16.23;;;;;;;2.77;82.20;99732.41;4465644;32;20100;-74
2021/12/14 10:01:10;;;;;;;31.50;16.08;;;;;;;2.66;81.90;99728.56;4497601;31;20461;-75
2021/12/14 10:03:45;;;;;;;30.27;14.38;;;;;;;2.76;81.88;99728.16;4496626;31;20138;-78
2021/12/14 10:06:18;;;;;;;33.58;17.00;;;;;;;2.92;82.40;99731.81;4498662;31;20571;-76
2021/12/14 10:08:52;;;;;;;25.77;13.85;;;;;;;2.96;81.62;99725.56;4498960;31;21633;-76
2021/12/14 10:11:27;;;;;;;30.70;14.70;;;;;;;3.00;80.66;99726.28;4499217;31;20126;-76
2021/12/14 10:13:56;;;;;;;26.92;13.50;;;;;;;2.89;79.44;99721.56;4497257;31;20123;-77
2021/12/14 10:16:23;;;;;;;26.52;13.50;;;;;;;2.85;79.90;99727.78;4497067;31;20567;-75
2021/12/14 10:18:59;;;;;;;23.92;12.68;;;;;;;2.88;80.12;99719.87;4499772;31;20136;-74
2021/12/14 10:21:35;;;;;;;25.35;11.80;;;;;;;2.93;77.70;99720.53;4497758;31;20160;-74
2021/12/14 10:24:04;;;;;;;23.17;13.62;;;;;;;2.95;79.24;99713.56;4499893;31;20087;-75
2021/12/14 10:26:34;;;;;;;21.85;12.45;;;;;;;2.89;80.13;99711.19;4494969;31;20088;-74
2021/12/14 10:29:02;;;;;;;22.17;11.68;;;;;;;2.70;80.68;99707.72;4496663;31;20119;-74
2021/12/14 10:31:37;;;;;;;26.12;12.85;;;;;;;2.76;80.38;99710.87;4497362;31;20112;-74
2021/12/14 10:34:09;;;;;;;31.45;16.27;;;;;;;2.84;80.27;99710.56;4497965;31;20314;-75
2021/12/14 10:36:43;;;;;;;27.87;12.55;;;;;;;2.97;79.20;99714.31;4497481;31;20134;-75
2021/12/14 10:44:51;;;;;;;23.02;10.93;;;;;;;3.13;77.29;99709.31;4496723;31;20126;-75
2021/12/14 10:47:21;;;;;;;22.25;10.43;;;;;;;3.15;76.06;99712.69;4497564;31;20104;-74
2021/12/14 10:49:49;;;;;;;21.58;10.85;;;;;;;3.14;77.13;99710.16;4497824;31;20503;-74
2021/12/14 10:52:22;;;;;;;19.95;10.43;;;;;;;3.25;77.82;99715.69;4497783;31;20118;-75
2021/12/14 10:54:54;;;;;;;21.30;11.05;;;;;;;3.10;78.35;99711.19;4496116;31;20104;-74
2021/12/14 10:57:27;;;;;;;22.60;11.10;;;;;;;2.89;79.16;99707.78;4499581;31;20092;-74
2021/12/14 10:59:56;;;;;;;21.45;11.30;;;;;;;2.81;79.34;99714.13;4498258;31;20088;-74
2021/12/14 11:02:26;;;;;;;21.85;10.88;;;;;;;3.00;79.13;99706.41;4499123;31;20100;-74
2021/12/14 11:04:58;;;;;;;24.17;12.43;;;;;;;2.95;79.54;99713.56;4498611;31;20598;-73
2021/12/14 11:07:40;;;;;;;24.60;11.52;;;;;;;2.77;79.41;99710.00;4498352;31;20087;-74
2021/12/14 11:10:19;;;;;;;22.75;11.12;;;;;;;2.66;79.89;99718.22;4497990;31;20096;-74
2021/12/14 11:12:52;;;;;;;27.10;12.02;;;;;;;2.62;80.50;99711.47;4498874;31;20112;-74
2021/12/14 11:15:35;;;;;;;23.17;11.18;;;;;;;2.61;80.39;99704.59;4499263;31;20114;-74
2021/12/14 11:18:13;;;;;;;17.23;9.25;;;;;;;2.60;80.00;99691.72;4484286;31;20091;-74
2021/12/14 11:20:51;;;;;;;22.75;11.20;;;;;;;2.71;79.00;99705.06;4498510;31;20382;-74
2021/12/14 11:23:23;;;;;;;21.02;11.30;;;;;;;2.86;79.39;99697.56;4497889;31;20547;-73
2021/12/14 11:25:53;;;;;;;24.35;11.50;;;;;;;2.78;79.78;99701.31;4498615;31;20118;-74
2021/12/14 11:28:34;;;;;;;21.77;11.07;;;;;;;2.77;79.09;99701.38;4497724;31;20118;-74
2021/12/14 11:31:19;;;;;;;23.87;10.82;;;;;;;2.63;79.35;99700.22;4493026;31;20134;-74
2021/12/14 11:33:57;;;;;;;21.35;10.20;;;;;;;2.85;79.02;99696.72;4497464;31;20477;-73
2021/12/14 11:36:46;;;;;;;20.95;10.18;;;;;;;2.70;79.63;99697.38;4498822;31;20397;-74
2021/12/14 11:39:23;;;;;;;20.15;10.10;;;;;;;2.61;79.55;99694.25;4504329;31;20080;-74
2021/12/14 11:42:00;;;;;;;17.17;8.85;;;;;;;2.89;78.44;99702.59;4496416;31;20100;-74
2021/12/14 11:44:32;;;;;;;19.45;9.07;;;;;;;3.12;77.32;99694.69;4498913;31;20104;-74
2021/12/14 11:47:46;;;;;;;18.27;8.93;;;;;;;3.27;76.00;99695.78;4498179;31;20088;-74
2021/12/14 11:50:46;;;;;;;21.55;8.95;;;;;;;3.29;74.88;99700.88;4498937;31;20525;-74
2021/12/14 11:53:17;;;;;;;17.50;9.40;;;;;;;3.42;74.98;99686.47;4494476;31;20161;-75
2021/12/14 11:55:58;;;;;;;18.62;9.68;;;;;;;3.55;76.09;99679.81;4498804;31;20120;-74
2021/12/14 11:58:36;;;;;;;17.37;9.18;;;;;;;3.62;74.92;99685.56;4501202;31;20158;-74
2021/12/14 12:01:34;;;;;;;21.30;9.57;;;;;;;3.60;74.03;99683.97;4500092;31;20142;-74
2021/12/14 12:04:17;;;;;;;19.98;9.20;;;;;;;3.64;73.17;99683.75;4500768;31;20135;-74
2021/12/14 12:09:42;;;;;;;19.42;9.48;;;;;;;3.61;74.90;99686.47;4497428;31;20107;-74
2021/12/14 12:12:19;;;;;;;22.35;9.52;;;;;;;3.73;74.71;99683.31;4499330;31;20122;-74
2021/12/14 12:14:55;;;;;;;17.55;9.70;;;;;;;3.78;73.86;99688.28;4499531;31;20104;-73
2021/12/14 12:17:28;;;;;;;17.62;8.63;;;;;;;3.98;73.47;99678.72;4498181;31;20201;-74
2021/12/14 12:20:05;;;;;;;20.83;9.88;;;;;;;4.01;71.05;99678.59;4498086;31;20092;-74
2021/12/14 12:22:43;;;;;;;18.67;10.10;;;;;;;4.02;71.68;99686.28;4498278;31;20088;-74
2021/12/14 12:25:20;;;;;;;22.35;11.85;;;;;;;4.15;72.47;99680.50;4494606;31;20156;-74
2021/12/14 12:28:01;;;;;;;19.87;11.02;;;;;;;4.12;75.10;99685.84;4498336;31;20100;-74
2021/12/14 12:31:00;;;;;;;21.40;10.82;;;;;;;4.08;76.08;99677.38;4498512;31;20088;-74
2021/12/14 12:33:29;;;;;;;22.10;11.82;;;;;;;4.08;75.98;99673.03;4492007;31;20084;-74
2021/12/14 12:36:14;;;;;;;21.62;11.15;;;;;;;4.20;76.38;99674.19;4500191;31;20481;-74